Aérodrome :
LOGIN :

S'inscrire | Disclaimer

   EN    FR    IT 

 










Légende :    VFR   VFR Marginal   IFR   IFR Intensif   IFR Très Intensif
Visi : 
Plafond : 
>= 8 km
>= 3000ft
5 à 8 km
1000 à 3000 ft
1500m à 5 km
500 à 1000 ft
800 à 1500m
200 à 500 ft
< 800m
< 200 ft
Symboles :   Orages  Brouillard  Fortes neiges  Fortes précipitations  Vent > 20 kt
SIGMETs :   Divers  Orages  Givrage  Turbulence  Onde Orograph.  Cendres Volcan.







- Altitude de l'aérodrome : 359 ft
- Code IATA : BVA
- Voir les cartes d'approche


LFOB - Beauvais

DERNIER METAR :
  • 190100Z AUTO 05003KT CAVOK 16/14 Q1007 NOSIG

METARs EXPIRÉS :
  • 190030Z AUTO 05005KT CAVOK 16/14 Q1007 NOSIG
  • 190000Z AUTO 05006KT CAVOK 17/15 Q1007 NOSIG
  • 182330Z AUTO 07005KT CAVOK 17/15 Q1008 NOSIG
  • 182300Z AUTO 07005KT CAVOK 17/15 Q1008 NOSIG
  • 182230Z AUTO 08003KT CAVOK 18/15 Q1008 NOSIG

TAF TAF LFOB
Valide du 19 à 00h jusqu'au 20 à 00h UTC


182300Z 1900/1924 12007KT CAVOK
BECMG 1906/1908 20010KT
PROB30
TEMPO 1915/1917 30015G25KT 2000 SHRA BKN030CB
TEMPO 1922/1924 BKN012
ATIS : +33 3 44 11 49 28
Pas de NOTAMs connus pour ce terrain.
1 SIGMET publié pour la FIR Paris (LFFF) :
 
Orages fréquents avec grêle
LFFF SIGMET 1 VALID 190100/190300 LFPW
LFFF PARIS FIR/UIR FRQ TSGR FCST WI N5000 W00015 - N5115 E00200 - N5100 E00215 - N5045 E00230 - N4915 E00030 - N5000 W00015 TOP FL330 MOV NE 25KT NC=



MET'MAP, la Météo Aéronautique d'un coup d'oeil ! - Copyright ORBIFLY Décembre 2007 - Disclaimer

ORBIFLY MET'MAP TEAM :

Programmation & Développement : Alexandra Zaïnal
Conception & Développement : Baudouin d'Aumeries
Co-Programmation & Développement : Marc-Olivier Méhu
Soutien technique & logistique : Manuel Goepfert

Contact : metmap@orbifly.com




SOURCES & CREDITS :

   NOAA